AirNav   Everest Fuels
 
 328 users online  

86NC Craft Airport
Hertford, North Carolina, USA

GOING TO HERTFORD?


FAA INFORMATION EFFECTIVE 20 JUNE 2019

Location

FAA Identifier: 86NC
Lat/Long: 36-15-49.0000N / 076-29-36.0000W
36-15.816667N / 076-29.600000W
36.2636111 / -76.4933333
(estimated)
Elevation: 14 ft. / 4 m (estimated)
Variation: 10W (2000)
From city: 5 miles N of HERTFORD, NC
Time zone: UTC -4 (UTC -5 during Standard Time)
Zip code: 27944

Airport Operations

Airport use: Private use. Permission required prior to landing
Activation date: 07/2002
Control tower: no
ARTCC: WASHINGTON CENTER
FSS: RALEIGH FLIGHT SERVICE STATION
Attendance: UNATNDD
Wind indicator: yes
Segmented circle: no

Airport Communications

WX AWOS-3 at EDE (15 nm S): 118.275 (252-482-0757)
WX ASOS at ECG (15 nm E): 124.375 (252-338-4750)

Nearby radio navigation aids

VOR radial/distance  VOR name  Freq  Var
ECGr278/15.4ELIZABETH CITY VOR/DME112.5007W
CVIr119/19.4COFIELD VORTAC114.6009W
FKNr146/36.8FRANKLIN VORTAC110.6009W

 
NDB name  Hdg/Dist  Freq  Var  ID
WOODVILLE280/9.425410WLLW .-.. .-.. .--

Airport Services

Runway Information

Runway 4/22

Dimensions: 2900 x 100 ft. / 884 x 30 m
Surface: turf
RUNWAY 4  RUNWAY 22
Traffic pattern: leftleft
Displaced threshold: no825 ft.
Obstructions: none50 ft. pline, 175 ft. from runway

Airport Ownership and Management from official FAA records

Ownership: Privately-owned
Owner: CRAIG D CRAFT
865 SWAMP RD
HERTFORD, NC 27944
Phone 252-426-2676
Manager: CRAIG D CRAFT
865 SWAMP RD
HERTFORD, NC 27944
Phone 252-426-2676

Airport Operational Statistics

Aircraft based on the field: 2
Single engine airplanes: 2
    

Additional Remarks

INTENSIVE AGRICULTURE OPNS INVOF ARPT.
OWNER DESIRES CHARTING.
FOR CD CTC NORFOLK APCH AT 757-464-0757.

Instrument Procedures

There are no published instrument procedures at 86NC.

Some nearby airports with instrument procedures:

KEDE - Northeastern Regional Airport (15 nm S)
KECG - Elizabeth City Coast Guard Air Station/Regional Airport (15 nm E)
KONX - Currituck County Regional Airport (25 nm E)
KCPK - Chesapeake Regional Airport (26 nm N)
KSFQ - Suffolk Executive Airport (26 nm N)
 
Loc | Ops | Rwys | IFR | FBO | Links
Com | Nav | Svcs | Stats | Notes
Area around 86NC (Craft Airport)
 
Road maps at: MapQuest Bing Google
 
Aerial photo
WARNING: Photo may not be current or correct
Aerial photo of 86NC (Craft Airport)
Do you have a better or more recent aerial photo of Craft Airport that you would like to share? If so, please send us your photo.

 
Sectional chart

 
Airport distance calculator
Flying to Craft Airport? Find the distance to fly.

From to 86NC

Sunrise and sunset
Times for 26-Jun-2019
 Local
(UTC-4)
 Zulu
(UTC)
Morning civil twilight05:2109:21
Sunrise05:5109:51
Sunset20:2600:26
Evening civil twilight20:5700:57

Current date and time
Zulu (UTC)  26-Jun-2019 07:29:18
Local (UTC-4)  26-Jun-2019 03:29:18
 
METAR
KECG 
15nm E 
260654Z AUTO 24004KT 10SM CLR 23/21 A2999 RMK AO2 SLP155 T02280206
KEDE 
15nm S 
260700Z AUTO 00000KT 10SM CLR 24/22 A3001 RMK AO2 T02410219
KONX 
24nm E 
260700Z AUTO 10SM CLR 22/21 A2999 RMK AO2 T02200207
KCPK 
26nm N 
260715Z AUTO 00000KT 10SM CLR 21/20 A2999 RMK AO2 T02100200
KSFQ 
26nm N 
260715Z AUTO 00000KT 10SM CLR 23/21 A3000 RMK AO2 T02250208
TAF
KECG 
15nm E 
260540Z 2606/2706 VRB03KT P6SM SCT250 FM261700 05008KT P6SM SCT050 FM270000 14004KT P6SM SKC
NOTAMs
Click for the latest NOTAMs
NOTAMs are issued by the DoD/FAA and will open in a separate window not controlled by AirNav.

 

 
 

Would you like to see your business listed on this page?

 If your business provides an interesting product or service to pilots, flight crews, aircraft, or users of the Craft Airport, you should consider listing it here.  To start the listing process, click on the button below
 
Add a business
 

Other Pages about Craft Airport

Update a link
 
Copyright © AirNav, LLC. All rights reserved. Privacy Policy  Contact